sensor_id;sensor_type;location;lat;lon;timestamp;pressure;altitude;pressure_sealevel;temperature
22322;BMP180;11328;53.928;18.522;2023-12-29T00:00:13;99422.00;;;7.80
22322;BMP180;11328;53.928;18.522;2023-12-29T00:02:41;99422.00;;;7.80
22322;BMP180;11328;53.928;18.522;2023-12-29T00:05:08;99398.00;;;7.80
22322;BMP180;11328;53.928;18.522;2023-12-29T00:07:35;99406.00;;;7.80
22322;BMP180;11328;53.928;18.522;2023-12-29T00:10:03;99409.00;;;7.80
22322;BMP180;11328;53.928;18.522;2023-12-29T00:12:30;99410.00;;;7.70
22322;BMP180;11328;53.928;18.522;2023-12-29T00:14:57;99395.00;;;7.80
22322;BMP180;11328;53.928;18.522;2023-12-29T00:17:24;99395.00;;;7.80
22322;BMP180;11328;53.928;18.522;2023-12-29T00:19:51;99390.00;;;7.70
22322;BMP180;11328;53.928;18.522;2023-12-29T00:22:20;99387.00;;;7.80
22322;BMP180;11328;53.928;18.522;2023-12-29T00:24:48;99389.00;;;7.70
22322;BMP180;11328;53.928;18.522;2023-12-29T00:27:15;99377.00;;;7.70
22322;BMP180;11328;53.928;18.522;2023-12-29T00:29:46;99384.00;;;7.70
22322;BMP180;11328;53.928;18.522;2023-12-29T00:32:13;99377.00;;;7.70
22322;BMP180;11328;53.928;18.522;2023-12-29T00:34:40;99380.00;;;7.70
22322;BMP180;11328;53.928;18.522;2023-12-29T00:37:07;99378.00;;;7.70
22322;BMP180;11328;53.928;18.522;2023-12-29T00:39:35;99377.00;;;7.60
22322;BMP180;11328;53.928;18.522;2023-12-29T00:42:06;99370.00;;;7.60
22322;BMP180;11328;53.928;18.522;2023-12-29T00:44:34;99369.00;;;7.60
22322;BMP180;11328;53.928;18.522;2023-12-29T00:47:02;99363.00;;;7.60
22322;BMP180;11328;53.928;18.522;2023-12-29T00:49:29;99364.00;;;7.60
22322;BMP180;11328;53.928;18.522;2023-12-29T00:51:57;99373.00;;;7.60
22322;BMP180;11328;53.928;18.522;2023-12-29T00:54:24;99364.00;;;7.60
22322;BMP180;11328;53.928;18.522;2023-12-29T00:56:55;99362.00;;;7.60
22322;BMP180;11328;53.928;18.522;2023-12-29T00:59:23;99350.00;;;7.60
22322;BMP180;11328;53.928;18.522;2023-12-29T01:01:50;99366.00;;;7.50
22322;BMP180;11328;53.928;18.522;2023-12-29T01:04:17;99367.00;;;7.60
22322;BMP180;11328;53.928;18.522;2023-12-29T01:06:44;99361.00;;;7.60
22322;BMP180;11328;53.928;18.522;2023-12-29T01:09:12;99357.00;;;7.60
22322;BMP180;11328;53.928;18.522;2023-12-29T01:11:39;99350.00;;;7.60
22322;BMP180;11328;53.928;18.522;2023-12-29T01:14:07;99356.00;;;7.60
22322;BMP180;11328;53.928;18.522;2023-12-29T01:16:34;99354.00;;;7.60
22322;BMP180;11328;53.928;18.522;2023-12-29T01:19:01;99345.00;;;7.70
22322;BMP180;11328;53.928;18.522;2023-12-29T01:21:29;99341.00;;;7.60
22322;BMP180;11328;53.928;18.522;2023-12-29T01:24:01;99343.00;;;7.50
22322;BMP180;11328;53.928;18.522;2023-12-29T01:26:30;99348.00;;;7.50
22322;BMP180;11328;53.928;18.522;2023-12-29T01:28:58;99341.00;;;7.60
22322;BMP180;11328;53.928;18.522;2023-12-29T01:31:29;99328.00;;;7.60
22322;BMP180;11328;53.928;18.522;2023-12-29T01:33:58;99324.00;;;7.60
22322;BMP180;11328;53.928;18.522;2023-12-29T01:36:25;99308.00;;;7.60
22322;BMP180;11328;53.928;18.522;2023-12-29T01:38:53;99307.00;;;7.50
22322;BMP180;11328;53.928;18.522;2023-12-29T01:41:20;99307.00;;;7.50
22322;BMP180;11328;53.928;18.522;2023-12-29T01:46:29;99294.00;;;7.50
22322;BMP180;11328;53.928;18.522;2023-12-29T01:48:58;99306.00;;;7.50
22322;BMP180;11328;53.928;18.522;2023-12-29T01:51:27;99304.00;;;7.40
22322;BMP180;11328;53.928;18.522;2023-12-29T01:53:56;99298.00;;;7.50
22322;BMP180;11328;53.928;18.522;2023-12-29T01:56:25;99299.00;;;7.50
22322;BMP180;11328;53.928;18.522;2023-12-29T01:58:55;99291.00;;;7.40
22322;BMP180;11328;53.928;18.522;2023-12-29T02:01:35;99286.00;;;7.40
22322;BMP180;11328;53.928;18.522;2023-12-29T02:04:03;99272.00;;;7.40
22322;BMP180;11328;53.928;18.522;2023-12-29T02:06:33;99267.00;;;7.40
22322;BMP180;11328;53.928;18.522;2023-12-29T02:09:02;99267.00;;;7.30
22322;BMP180;11328;53.928;18.522;2023-12-29T02:11:32;99255.00;;;7.30
22322;BMP180;11328;53.928;18.522;2023-12-29T02:14:00;99246.00;;;7.30
22322;BMP180;11328;53.928;18.522;2023-12-29T02:17:15;99259.00;;;7.30
22322;BMP180;11328;53.928;18.522;2023-12-29T02:19:47;99257.00;;;7.20
22322;BMP180;11328;53.928;18.522;2023-12-29T02:22:16;99251.00;;;7.20
22322;BMP180;11328;53.928;18.522;2023-12-29T02:24:50;99248.00;;;7.20
22322;BMP180;11328;53.928;18.522;2023-12-29T02:27:40;99246.00;;;7.20
22322;BMP180;11328;53.928;18.522;2023-12-29T02:31:00;99221.00;;;7.10
22322;BMP180;11328;53.928;18.522;2023-12-29T02:33:30;99212.00;;;7.10
22322;BMP180;11328;53.928;18.522;2023-12-29T02:36:01;99220.00;;;7.00
22322;BMP180;11328;53.928;18.522;2023-12-29T02:38:30;99224.00;;;7.10
22322;BMP180;11328;53.928;18.522;2023-12-29T02:40:58;99210.00;;;7.00
22322;BMP180;11328;53.928;18.522;2023-12-29T02:43:26;99219.00;;;6.90
22322;BMP180;11328;53.928;18.522;2023-12-29T02:45:53;99224.00;;;6.90
22322;BMP180;11328;53.928;18.522;2023-12-29T02:48:20;99212.00;;;6.90
22322;BMP180;11328;53.928;18.522;2023-12-29T02:50:47;99191.00;;;6.90
22322;BMP180;11328;53.928;18.522;2023-12-29T02:53:15;99189.00;;;7.00
22322;BMP180;11328;53.928;18.522;2023-12-29T02:55:42;99195.00;;;6.90
22322;BMP180;11328;53.928;18.522;2023-12-29T02:58:09;99197.00;;;7.00
22322;BMP180;11328;53.928;18.522;2023-12-29T03:00:37;99193.00;;;6.90
22322;BMP180;11328;53.928;18.522;2023-12-29T03:03:04;99169.00;;;6.90
22322;BMP180;11328;53.928;18.522;2023-12-29T03:05:32;99182.00;;;7.00
22322;BMP180;11328;53.928;18.522;2023-12-29T03:07:59;99189.00;;;6.90
22322;BMP180;11328;53.928;18.522;2023-12-29T03:10:27;99185.00;;;6.90
22322;BMP180;11328;53.928;18.522;2023-12-29T03:12:54;99194.00;;;6.90
22322;BMP180;11328;53.928;18.522;2023-12-29T03:15:21;99192.00;;;6.90
22322;BMP180;11328;53.928;18.522;2023-12-29T03:17:49;99188.00;;;6.90
22322;BMP180;11328;53.928;18.522;2023-12-29T03:20:16;99187.00;;;6.90
22322;BMP180;11328;53.928;18.522;2023-12-29T03:22:43;99189.00;;;6.80
22322;BMP180;11328;53.928;18.522;2023-12-29T03:25:10;99192.00;;;6.80
22322;BMP180;11328;53.928;18.522;2023-12-29T03:27:37;99195.00;;;6.80
22322;BMP180;11328;53.928;18.522;2023-12-29T03:30:05;99187.00;;;6.80
22322;BMP180;11328;53.928;18.522;2023-12-29T03:32:32;99183.00;;;6.90
22322;BMP180;11328;53.928;18.522;2023-12-29T03:34:59;99172.00;;;6.90
22322;BMP180;11328;53.928;18.522;2023-12-29T03:37:28;99179.00;;;6.90
22322;BMP180;11328;53.928;18.522;2023-12-29T03:39:55;99186.00;;;6.90
22322;BMP180;11328;53.928;18.522;2023-12-29T03:42:22;99178.00;;;6.90
22322;BMP180;11328;53.928;18.522;2023-12-29T03:44:49;99167.00;;;6.90
22322;BMP180;11328;53.928;18.522;2023-12-29T03:47:16;99178.00;;;7.00
22322;BMP180;11328;53.928;18.522;2023-12-29T03:49:43;99173.00;;;7.00
22322;BMP180;11328;53.928;18.522;2023-12-29T03:52:11;99176.00;;;7.00
22322;BMP180;11328;53.928;18.522;2023-12-29T03:54:38;99167.00;;;7.00
22322;BMP180;11328;53.928;18.522;2023-12-29T03:57:05;99172.00;;;7.10
22322;BMP180;11328;53.928;18.522;2023-12-29T03:59:32;99175.00;;;7.20
22322;BMP180;11328;53.928;18.522;2023-12-29T04:02:03;99177.00;;;7.20
22322;BMP180;11328;53.928;18.522;2023-12-29T04:04:30;99179.00;;;7.20
22322;BMP180;11328;53.928;18.522;2023-12-29T04:06:57;99173.00;;;7.20
22322;BMP180;11328;53.928;18.522;2023-12-29T04:09:24;99172.00;;;7.20
22322;BMP180;11328;53.928;18.522;2023-12-29T04:11:51;99164.00;;;7.30
22322;BMP180;11328;53.928;18.522;2023-12-29T04:14:18;99160.00;;;7.30
22322;BMP180;11328;53.928;18.522;2023-12-29T04:16:45;99160.00;;;7.30
22322;BMP180;11328;53.928;18.522;2023-12-29T04:19:12;99154.00;;;7.40
22322;BMP180;11328;53.928;18.522;2023-12-29T04:21:42;99141.00;;;7.40
22322;BMP180;11328;53.928;18.522;2023-12-29T04:24:09;99141.00;;;7.40
22322;BMP180;11328;53.928;18.522;2023-12-29T04:26:37;99140.00;;;7.50
22322;BMP180;11328;53.928;18.522;2023-12-29T04:29:04;99150.00;;;7.50
22322;BMP180;11328;53.928;18.522;2023-12-29T04:31:31;99127.00;;;7.40
22322;BMP180;11328;53.928;18.522;2023-12-29T04:33:58;99130.00;;;7.50
22322;BMP180;11328;53.928;18.522;2023-12-29T04:36:25;99120.00;;;7.50
22322;BMP180;11328;53.928;18.522;2023-12-29T04:38:52;99130.00;;;7.50
22322;BMP180;11328;53.928;18.522;2023-12-29T04:41:19;99114.00;;;7.60
22322;BMP180;11328;53.928;18.522;2023-12-29T04:43:46;99127.00;;;7.50
22322;BMP180;11328;53.928;18.522;2023-12-29T04:46:13;99116.00;;;7.50
22322;BMP180;11328;53.928;18.522;2023-12-29T04:48:40;99108.00;;;7.50
22322;BMP180;11328;53.928;18.522;2023-12-29T04:51:08;99113.00;;;7.50
22322;BMP180;11328;53.928;18.522;2023-12-29T04:53:35;99116.00;;;7.50
22322;BMP180;11328;53.928;18.522;2023-12-29T04:56:02;99103.00;;;7.50
22322;BMP180;11328;53.928;18.522;2023-12-29T04:58:29;99106.00;;;7.50
22322;BMP180;11328;53.928;18.522;2023-12-29T05:00:56;99113.00;;;7.50
22322;BMP180;11328;53.928;18.522;2023-12-29T05:03:23;99090.00;;;7.50
22322;BMP180;11328;53.928;18.522;2023-12-29T05:05:50;99091.00;;;7.50
22322;BMP180;11328;53.928;18.522;2023-12-29T05:08:17;99079.00;;;7.50
22322;BMP180;11328;53.928;18.522;2023-12-29T05:10:45;99079.00;;;7.50
22322;BMP180;11328;53.928;18.522;2023-12-29T05:13:12;99077.00;;;7.40
22322;BMP180;11328;53.928;18.522;2023-12-29T05:15:39;99081.00;;;7.40
22322;BMP180;11328;53.928;18.522;2023-12-29T05:18:06;99081.00;;;7.40
22322;BMP180;11328;53.928;18.522;2023-12-29T05:20:33;99085.00;;;7.40
22322;BMP180;11328;53.928;18.522;2023-12-29T05:23:00;99083.00;;;7.50
22322;BMP180;11328;53.928;18.522;2023-12-29T05:25:27;99091.00;;;7.50
22322;BMP180;11328;53.928;18.522;2023-12-29T05:27:55;99072.00;;;7.50
22322;BMP180;11328;53.928;18.522;2023-12-29T05:30:22;99049.00;;;7.60
22322;BMP180;11328;53.928;18.522;2023-12-29T05:32:49;99061.00;;;7.60
22322;BMP180;11328;53.928;18.522;2023-12-29T05:35:18;99071.00;;;7.60
22322;BMP180;11328;53.928;18.522;2023-12-29T05:37:45;99075.00;;;7.70
22322;BMP180;11328;53.928;18.522;2023-12-29T05:40:12;99061.00;;;7.60
22322;BMP180;11328;53.928;18.522;2023-12-29T05:42:39;99055.00;;;7.60
22322;BMP180;11328;53.928;18.522;2023-12-29T05:45:07;99058.00;;;7.60
22322;BMP180;11328;53.928;18.522;2023-12-29T05:47:34;99064.00;;;7.60
22322;BMP180;11328;53.928;18.522;2023-12-29T05:50:02;99051.00;;;7.60
22322;BMP180;11328;53.928;18.522;2023-12-29T05:52:30;99048.00;;;7.50
22322;BMP180;11328;53.928;18.522;2023-12-29T05:54:57;99035.00;;;7.60
22322;BMP180;11328;53.928;18.522;2023-12-29T05:57:24;99035.00;;;7.60
22322;BMP180;11328;53.928;18.522;2023-12-29T05:59:51;99041.00;;;7.60
22322;BMP180;11328;53.928;18.522;2023-12-29T06:02:18;99048.00;;;7.50
22322;BMP180;11328;53.928;18.522;2023-12-29T06:04:45;99036.00;;;7.60
22322;BMP180;11328;53.928;18.522;2023-12-29T06:07:13;99037.00;;;7.60
22322;BMP180;11328;53.928;18.522;2023-12-29T06:09:40;99039.00;;;7.60
22322;BMP180;11328;53.928;18.522;2023-12-29T06:12:07;99034.00;;;7.60
22322;BMP180;11328;53.928;18.522;2023-12-29T06:14:36;99049.00;;;7.60
22322;BMP180;11328;53.928;18.522;2023-12-29T06:17:04;99038.00;;;7.60
22322;BMP180;11328;53.928;18.522;2023-12-29T06:19:31;99043.00;;;7.60
22322;BMP180;11328;53.928;18.522;2023-12-29T06:21:59;99049.00;;;7.60
22322;BMP180;11328;53.928;18.522;2023-12-29T06:24:26;99051.00;;;7.60
22322;BMP180;11328;53.928;18.522;2023-12-29T06:26:54;99035.00;;;7.60
22322;BMP180;11328;53.928;18.522;2023-12-29T06:29:21;99015.00;;;7.60
22322;BMP180;11328;53.928;18.522;2023-12-29T06:31:48;99025.00;;;7.60
22322;BMP180;11328;53.928;18.522;2023-12-29T06:34:15;99023.00;;;7.50
22322;BMP180;11328;53.928;18.522;2023-12-29T06:36:43;99020.00;;;7.60
22322;BMP180;11328;53.928;18.522;2023-12-29T06:39:10;99025.00;;;7.60
22322;BMP180;11328;53.928;18.522;2023-12-29T06:41:37;99030.00;;;7.60
22322;BMP180;11328;53.928;18.522;2023-12-29T06:44:05;99037.00;;;7.60
22322;BMP180;11328;53.928;18.522;2023-12-29T06:46:32;99038.00;;;7.60
22322;BMP180;11328;53.928;18.522;2023-12-29T06:48:59;99030.00;;;7.60
22322;BMP180;11328;53.928;18.522;2023-12-29T06:51:26;99033.00;;;7.60
22322;BMP180;11328;53.928;18.522;2023-12-29T06:53:54;99026.00;;;7.70
22322;BMP180;11328;53.928;18.522;2023-12-29T06:56:21;99024.00;;;7.70
22322;BMP180;11328;53.928;18.522;2023-12-29T06:58:49;99011.00;;;7.70
22322;BMP180;11328;53.928;18.522;2023-12-29T07:01:17;99014.00;;;7.80
22322;BMP180;11328;53.928;18.522;2023-12-29T07:03:44;98995.00;;;7.80
22322;BMP180;11328;53.928;18.522;2023-12-29T07:06:12;99005.00;;;7.80
22322;BMP180;11328;53.928;18.522;2023-12-29T07:08:39;99021.00;;;7.80
22322;BMP180;11328;53.928;18.522;2023-12-29T07:11:10;99024.00;;;7.80
22322;BMP180;11328;53.928;18.522;2023-12-29T07:13:38;99013.00;;;7.70
22322;BMP180;11328;53.928;18.522;2023-12-29T07:16:06;99015.00;;;7.70
22322;BMP180;11328;53.928;18.522;2023-12-29T07:18:33;99022.00;;;7.80
22322;BMP180;11328;53.928;18.522;2023-12-29T07:21:01;99009.00;;;7.80
22322;BMP180;11328;53.928;18.522;2023-12-29T07:23:28;99024.00;;;7.80
22322;BMP180;11328;53.928;18.522;2023-12-29T07:25:55;99004.00;;;7.80
22322;BMP180;11328;53.928;18.522;2023-12-29T07:28:22;99010.00;;;7.80
22322;BMP180;11328;53.928;18.522;2023-12-29T07:30:50;99016.00;;;7.80
22322;BMP180;11328;53.928;18.522;2023-12-29T07:33:17;99013.00;;;7.80
22322;BMP180;11328;53.928;18.522;2023-12-29T07:35:44;99011.00;;;7.80
22322;BMP180;11328;53.928;18.522;2023-12-29T07:38:12;99010.00;;;7.90
22322;BMP180;11328;53.928;18.522;2023-12-29T07:40:40;99027.00;;;7.90
22322;BMP180;11328;53.928;18.522;2023-12-29T07:43:07;99025.00;;;8.00
22322;BMP180;11328;53.928;18.522;2023-12-29T07:45:35;99026.00;;;8.00
22322;BMP180;11328;53.928;18.522;2023-12-29T07:48:03;99023.00;;;8.00
22322;BMP180;11328;53.928;18.522;2023-12-29T07:50:33;99027.00;;;8.10
22322;BMP180;11328;53.928;18.522;2023-12-29T07:53:00;99032.00;;;8.10
22322;BMP180;11328;53.928;18.522;2023-12-29T07:55:38;99031.00;;;8.10
22322;BMP180;11328;53.928;18.522;2023-12-29T07:58:15;99010.00;;;8.10
22322;BMP180;11328;53.928;18.522;2023-12-29T08:00:43;99029.00;;;8.20
22322;BMP180;11328;53.928;18.522;2023-12-29T08:03:10;99016.00;;;8.20
22322;BMP180;11328;53.928;18.522;2023-12-29T08:05:37;99004.00;;;8.30
22322;BMP180;11328;53.928;18.522;2023-12-29T08:08:07;98988.00;;;8.30
22322;BMP180;11328;53.928;18.522;2023-12-29T08:10:34;99013.00;;;8.40
22322;BMP180;11328;53.928;18.522;2023-12-29T08:13:01;99017.00;;;8.40
22322;BMP180;11328;53.928;18.522;2023-12-29T08:15:29;99011.00;;;8.50
22322;BMP180;11328;53.928;18.522;2023-12-29T08:17:56;99017.00;;;8.50
22322;BMP180;11328;53.928;18.522;2023-12-29T08:20:23;99005.00;;;8.50
22322;BMP180;11328;53.928;18.522;2023-12-29T08:22:51;99017.00;;;8.60
22322;BMP180;11328;53.928;18.522;2023-12-29T08:25:18;99007.00;;;8.60
22322;BMP180;11328;53.928;18.522;2023-12-29T08:27:45;99016.00;;;8.60
22322;BMP180;11328;53.928;18.522;2023-12-29T08:30:13;99007.00;;;8.60
22322;BMP180;11328;53.928;18.522;2023-12-29T08:32:40;99013.00;;;8.50
22322;BMP180;11328;53.928;18.522;2023-12-29T08:35:07;99005.00;;;8.50
22322;BMP180;11328;53.928;18.522;2023-12-29T08:37:35;99018.00;;;8.50
22322;BMP180;11328;53.928;18.522;2023-12-29T08:40:03;99004.00;;;8.50
22322;BMP180;11328;53.928;18.522;2023-12-29T08:42:30;99016.00;;;8.60
22322;BMP180;11328;53.928;18.522;2023-12-29T08:44:59;99019.00;;;8.60
22322;BMP180;11328;53.928;18.522;2023-12-29T08:47:26;99010.00;;;8.60
22322;BMP180;11328;53.928;18.522;2023-12-29T08:49:53;99013.00;;;8.60
22322;BMP180;11328;53.928;18.522;2023-12-29T08:52:21;98998.00;;;8.60
22322;BMP180;11328;53.928;18.522;2023-12-29T08:54:48;99012.00;;;8.50
22322;BMP180;11328;53.928;18.522;2023-12-29T08:57:15;99016.00;;;8.60
22322;BMP180;11328;53.928;18.522;2023-12-29T08:59:43;99004.00;;;8.60
22322;BMP180;11328;53.928;18.522;2023-12-29T09:02:10;99004.00;;;8.60
22322;BMP180;11328;53.928;18.522;2023-12-29T09:04:38;98999.00;;;8.70
22322;BMP180;11328;53.928;18.522;2023-12-29T09:07:05;98999.00;;;8.70
22322;BMP180;11328;53.928;18.522;2023-12-29T09:09:33;98998.00;;;8.60
22322;BMP180;11328;53.928;18.522;2023-12-29T09:12:00;99010.00;;;8.60
22322;BMP180;11328;53.928;18.522;2023-12-29T09:14:28;99003.00;;;8.60
22322;BMP180;11328;53.928;18.522;2023-12-29T09:16:58;98999.00;;;8.50
22322;BMP180;11328;53.928;18.522;2023-12-29T09:19:25;99005.00;;;8.50
22322;BMP180;11328;53.928;18.522;2023-12-29T09:22:05;98999.00;;;8.40
22322;BMP180;11328;53.928;18.522;2023-12-29T09:24:32;99004.00;;;8.40
22322;BMP180;11328;53.928;18.522;2023-12-29T09:26:59;98999.00;;;8.50
22322;BMP180;11328;53.928;18.522;2023-12-29T09:29:26;98997.00;;;8.50
22322;BMP180;11328;53.928;18.522;2023-12-29T09:31:53;98996.00;;;8.50
22322;BMP180;11328;53.928;18.522;2023-12-29T09:34:21;99003.00;;;8.60
22322;BMP180;11328;53.928;18.522;2023-12-29T09:36:48;98976.00;;;8.60
22322;BMP180;11328;53.928;18.522;2023-12-29T09:39:15;99010.00;;;8.60
22322;BMP180;11328;53.928;18.522;2023-12-29T09:41:46;99011.00;;;8.60
22322;BMP180;11328;53.928;18.522;2023-12-29T09:44:21;99012.00;;;8.70
22322;BMP180;11328;53.928;18.522;2023-12-29T09:46:54;99011.00;;;8.70
22322;BMP180;11328;53.928;18.522;2023-12-29T09:49:22;98998.00;;;8.80
22322;BMP180;11328;53.928;18.522;2023-12-29T09:51:51;99005.00;;;8.80
22322;BMP180;11328;53.928;18.522;2023-12-29T09:54:19;99005.00;;;8.80
22322;BMP180;11328;53.928;18.522;2023-12-29T09:56:49;98999.00;;;8.80
22322;BMP180;11328;53.928;18.522;2023-12-29T09:59:18;98996.00;;;8.90
22322;BMP180;11328;53.928;18.522;2023-12-29T10:01:47;99003.00;;;8.90
22322;BMP180;11328;53.928;18.522;2023-12-29T10:04:15;98995.00;;;8.90
22322;BMP180;11328;53.928;18.522;2023-12-29T10:06:44;98999.00;;;9.00
22322;BMP180;11328;53.928;18.522;2023-12-29T10:09:20;98997.00;;;9.00
22322;BMP180;11328;53.928;18.522;2023-12-29T10:11:48;99000.00;;;9.10
22322;BMP180;11328;53.928;18.522;2023-12-29T10:14:46;99000.00;;;9.10
22322;BMP180;11328;53.928;18.522;2023-12-29T10:21:13;98999.00;;;9.10
22322;BMP180;11328;53.928;18.522;2023-12-29T10:23:57;98999.00;;;9.10
22322;BMP180;11328;53.928;18.522;2023-12-29T10:26:26;98999.00;;;9.20
22322;BMP180;11328;53.928;18.522;2023-12-29T10:28:55;99013.00;;;9.20
22322;BMP180;11328;53.928;18.522;2023-12-29T10:31:23;99003.00;;;9.20
22322;BMP180;11328;53.928;18.522;2023-12-29T10:33:51;99009.00;;;9.30
22322;BMP180;11328;53.928;18.522;2023-12-29T10:36:19;99007.00;;;9.10
22322;BMP180;11328;53.928;18.522;2023-12-29T10:38:46;99010.00;;;9.20
22322;BMP180;11328;53.928;18.522;2023-12-29T10:41:19;99009.00;;;9.20
22322;BMP180;11328;53.928;18.522;2023-12-29T10:43:47;98993.00;;;9.20
22322;BMP180;11328;53.928;18.522;2023-12-29T10:46:19;99002.00;;;9.30
22322;BMP180;11328;53.928;18.522;2023-12-29T10:48:48;99006.00;;;9.30
22322;BMP180;11328;53.928;18.522;2023-12-29T10:51:16;99008.00;;;9.30
22322;BMP180;11328;53.928;18.522;2023-12-29T10:53:56;98998.00;;;9.30
22322;BMP180;11328;53.928;18.522;2023-12-29T10:56:27;99012.00;;;9.40
22322;BMP180;11328;53.928;18.522;2023-12-29T10:59:03;99007.00;;;9.40
22322;BMP180;11328;53.928;18.522;2023-12-29T11:02:00;98998.00;;;9.50
22322;BMP180;11328;53.928;18.522;2023-12-29T11:04:32;98990.00;;;9.50
22322;BMP180;11328;53.928;18.522;2023-12-29T11:07:00;99003.00;;;9.50
22322;BMP180;11328;53.928;18.522;2023-12-29T11:09:28;98988.00;;;9.50
22322;BMP180;11328;53.928;18.522;2023-12-29T11:12:04;98983.00;;;9.50
22322;BMP180;11328;53.928;18.522;2023-12-29T11:14:32;98992.00;;;9.60
22322;BMP180;11328;53.928;18.522;2023-12-29T11:17:01;98982.00;;;9.60
22322;BMP180;11328;53.928;18.522;2023-12-29T11:19:28;98926.00;;;9.70
22322;BMP180;11328;53.928;18.522;2023-12-29T11:21:56;98993.00;;;9.70
22322;BMP180;11328;53.928;18.522;2023-12-29T11:24:24;98983.00;;;9.70
22322;BMP180;11328;53.928;18.522;2023-12-29T11:27:06;98978.00;;;9.60
22322;BMP180;11328;53.928;18.522;2023-12-29T11:29:35;98981.00;;;9.50
22322;BMP180;11328;53.928;18.522;2023-12-29T11:32:06;98979.00;;;9.60
22322;BMP180;11328;53.928;18.522;2023-12-29T11:34:48;99001.00;;;9.60
22322;BMP180;11328;53.928;18.522;2023-12-29T11:37:34;98999.00;;;9.60
22322;BMP180;11328;53.928;18.522;2023-12-29T11:42:54;98991.00;;;9.50
22322;BMP180;11328;53.928;18.522;2023-12-29T11:45:33;98984.00;;;9.50
22322;BMP180;11328;53.928;18.522;2023-12-29T11:48:04;98995.00;;;9.40
22322;BMP180;11328;53.928;18.522;2023-12-29T11:50:36;98985.00;;;9.40
22322;BMP180;11328;53.928;18.522;2023-12-29T11:53:05;98978.00;;;9.40
22322;BMP180;11328;53.928;18.522;2023-12-29T11:55:38;98984.00;;;9.50
22322;BMP180;11328;53.928;18.522;2023-12-29T11:58:27;98973.00;;;9.50
22322;BMP180;11328;53.928;18.522;2023-12-29T12:00:58;98971.00;;;9.60
22322;BMP180;11328;53.928;18.522;2023-12-29T12:03:28;98983.00;;;9.70
22322;BMP180;11328;53.928;18.522;2023-12-29T12:05:59;98976.00;;;9.70
22322;BMP180;11328;53.928;18.522;2023-12-29T12:08:33;98990.00;;;9.70
22322;BMP180;11328;53.928;18.522;2023-12-29T12:13:57;98989.00;;;9.50
22322;BMP180;11328;53.928;18.522;2023-12-29T12:19:10;98979.00;;;9.70
22322;BMP180;11328;53.928;18.522;2023-12-29T12:21:38;99004.00;;;9.60
22322;BMP180;11328;53.928;18.522;2023-12-29T12:24:06;99009.00;;;9.70
22322;BMP180;11328;53.928;18.522;2023-12-29T12:26:34;99022.00;;;9.70
22322;BMP180;11328;53.928;18.522;2023-12-29T12:29:02;99014.00;;;9.60
22322;BMP180;11328;53.928;18.522;2023-12-29T12:31:30;99014.00;;;9.50
22322;BMP180;11328;53.928;18.522;2023-12-29T12:33:57;99008.00;;;9.50
22322;BMP180;11328;53.928;18.522;2023-12-29T12:36:25;99009.00;;;9.40
22322;BMP180;11328;53.928;18.522;2023-12-29T12:38:56;98991.00;;;9.40
22322;BMP180;11328;53.928;18.522;2023-12-29T12:41:26;98998.00;;;9.40
22322;BMP180;11328;53.928;18.522;2023-12-29T12:44:27;99000.00;;;9.30
22322;BMP180;11328;53.928;18.522;2023-12-29T12:47:06;99000.00;;;9.30
22322;BMP180;11328;53.928;18.522;2023-12-29T12:49:36;98994.00;;;9.40
22322;BMP180;11328;53.928;18.522;2023-12-29T12:52:04;98987.00;;;9.50
22322;BMP180;11328;53.928;18.522;2023-12-29T12:54:32;98999.00;;;9.50
22322;BMP180;11328;53.928;18.522;2023-12-29T12:57:01;98993.00;;;9.50
22322;BMP180;11328;53.928;18.522;2023-12-29T12:59:29;98976.00;;;9.50
22322;BMP180;11328;53.928;18.522;2023-12-29T13:01:57;98975.00;;;9.50
22322;BMP180;11328;53.928;18.522;2023-12-29T13:04:25;98966.00;;;9.50
22322;BMP180;11328;53.928;18.522;2023-12-29T13:06:53;98958.00;;;9.50
22322;BMP180;11328;53.928;18.522;2023-12-29T13:09:20;98956.00;;;9.40
22322;BMP180;11328;53.928;18.522;2023-12-29T13:11:48;98967.00;;;9.50
22322;BMP180;11328;53.928;18.522;2023-12-29T13:14:24;98986.00;;;9.40
22322;BMP180;11328;53.928;18.522;2023-12-29T13:16:53;98998.00;;;9.40
22322;BMP180;11328;53.928;18.522;2023-12-29T13:19:24;98995.00;;;9.40
22322;BMP180;11328;53.928;18.522;2023-12-29T13:21:54;99006.00;;;9.40
22322;BMP180;11328;53.928;18.522;2023-12-29T13:24:27;98997.00;;;9.40
22322;BMP180;11328;53.928;18.522;2023-12-29T13:27:07;99005.00;;;9.40
22322;BMP180;11328;53.928;18.522;2023-12-29T13:29:36;99006.00;;;9.40
22322;BMP180;11328;53.928;18.522;2023-12-29T13:32:21;99003.00;;;9.50
22322;BMP180;11328;53.928;18.522;2023-12-29T13:35:06;99014.00;;;9.40
22322;BMP180;11328;53.928;18.522;2023-12-29T13:37:55;99014.00;;;9.40
22322;BMP180;11328;53.928;18.522;2023-12-29T13:40:56;99008.00;;;9.30
22322;BMP180;11328;53.928;18.522;2023-12-29T13:43:24;99012.00;;;9.30
22322;BMP180;11328;53.928;18.522;2023-12-29T13:45:52;98998.00;;;9.30
22322;BMP180;11328;53.928;18.522;2023-12-29T13:48:20;99009.00;;;9.30
22322;BMP180;11328;53.928;18.522;2023-12-29T13:50:49;99014.00;;;9.30
22322;BMP180;11328;53.928;18.522;2023-12-29T13:53:21;99020.00;;;9.30
22322;BMP180;11328;53.928;18.522;2023-12-29T13:55:49;99034.00;;;9.30
22322;BMP180;11328;53.928;18.522;2023-12-29T13:58:16;99035.00;;;9.30
22322;BMP180;11328;53.928;18.522;2023-12-29T14:00:53;99030.00;;;9.20
22322;BMP180;11328;53.928;18.522;2023-12-29T14:03:30;99049.00;;;9.30
22322;BMP180;11328;53.928;18.522;2023-12-29T14:06:08;99038.00;;;9.20
22322;BMP180;11328;53.928;18.522;2023-12-29T14:08:45;99044.00;;;9.30
22322;BMP180;11328;53.928;18.522;2023-12-29T14:11:14;99047.00;;;9.30
22322;BMP180;11328;53.928;18.522;2023-12-29T14:13:45;99027.00;;;9.20
22322;BMP180;11328;53.928;18.522;2023-12-29T14:16:12;99026.00;;;9.30
22322;BMP180;11328;53.928;18.522;2023-12-29T14:24:14;99039.00;;;9.30
22322;BMP180;11328;53.928;18.522;2023-12-29T14:29:20;99029.00;;;9.20
22322;BMP180;11328;53.928;18.522;2023-12-29T14:31:49;99030.00;;;9.20
22322;BMP180;11328;53.928;18.522;2023-12-29T14:34:19;99024.00;;;9.20
22322;BMP180;11328;53.928;18.522;2023-12-29T14:36:47;99019.00;;;9.20
22322;BMP180;11328;53.928;18.522;2023-12-29T14:39:14;99016.00;;;9.20
22322;BMP180;11328;53.928;18.522;2023-12-29T14:41:45;99025.00;;;9.20
22322;BMP180;11328;53.928;18.522;2023-12-29T14:44:13;99032.00;;;9.20